createdAt,value
2023-03-28T00:00:59.554Z,82.80
2023-03-28T00:03:29.203Z,84.00
2023-03-28T00:06:00.849Z,84.30
2023-03-28T00:08:29.911Z,85.30
2023-03-28T00:11:05.873Z,84.80
2023-03-28T00:13:34.829Z,85.20
2023-03-28T00:16:06.806Z,85.40
2023-03-28T00:18:37.837Z,86.30
2023-03-28T00:21:19.635Z,86.60
2023-03-28T00:23:52.468Z,87.40
2023-03-28T00:26:22.122Z,87.30
2023-03-28T00:28:50.396Z,88.40
2023-03-28T00:31:20.590Z,88.30
2023-03-28T00:33:48.854Z,88.30
2023-03-28T00:36:22.927Z,88.70
2023-03-28T00:38:52.431Z,87.70
2023-03-28T00:41:21.965Z,86.80
2023-03-28T00:43:52.339Z,84.50
2023-03-28T00:46:24.532Z,85.10
2023-03-28T00:48:54.683Z,85.10
2023-03-28T00:51:26.510Z,85.70
2023-03-28T00:53:57.973Z,87.30
2023-03-28T00:56:27.063Z,87.70
2023-03-28T00:58:55.361Z,88.10
2023-03-28T01:01:24.972Z,87.10
2023-03-28T01:04:02.330Z,83.70
2023-03-28T01:06:32.952Z,80.80
2023-03-28T01:09:02.246Z,78.40
2023-03-28T01:11:30.898Z,78.40
2023-03-28T01:14:00.634Z,78.40
2023-03-28T01:16:31.816Z,79.60
2023-03-28T01:19:02.783Z,80.80
2023-03-28T01:22:16.142Z,80.90
2023-03-28T01:25:16.382Z,81.70
2023-03-28T01:27:52.169Z,82.40
2023-03-28T01:30:40.894Z,83.00
2023-03-28T01:33:33.236Z,83.60
2023-03-28T01:36:33.918Z,83.90
2023-03-28T01:39:11.062Z,84.40
2023-03-28T01:41:43.537Z,83.30
2023-03-28T01:44:17.356Z,84.10
2023-03-28T01:46:47.547Z,85.40
2023-03-28T01:49:20.991Z,86.80
2023-03-28T01:51:55.811Z,87.50
2023-03-28T01:54:31.809Z,87.80
2023-03-28T01:57:06.006Z,88.40
2023-03-28T01:59:37.200Z,88.40
2023-03-28T02:02:08.881Z,87.90
2023-03-28T02:04:37.821Z,87.60
2023-03-28T02:07:08.948Z,87.00
2023-03-28T02:09:39.162Z,86.40
2023-03-28T02:12:12.021Z,86.80
2023-03-28T02:14:43.460Z,86.00
2023-03-28T02:17:15.684Z,85.40
2023-03-28T02:19:48.219Z,84.30
2023-03-28T02:22:21.058Z,84.50
2023-03-28T02:24:52.083Z,84.80
2023-03-28T02:27:39.524Z,86.00
2023-03-28T02:30:09.404Z,86.10
2023-03-28T02:32:38.150Z,87.10
2023-03-28T02:35:09.184Z,87.10
2023-03-28T02:37:43.658Z,86.80
2023-03-28T02:40:29.336Z,86.10
2023-03-28T02:43:07.747Z,85.70
2023-03-28T02:45:50.527Z,84.60
2023-03-28T02:48:27.118Z,84.40
2023-03-28T02:51:06.280Z,83.20
2023-03-28T02:53:44.648Z,81.90
2023-03-28T02:56:19.261Z,81.70
2023-03-28T02:58:49.915Z,80.80
2023-03-28T03:01:18.128Z,79.60
2023-03-28T03:03:48.315Z,79.30
2023-03-28T03:06:18.011Z,78.30
2023-03-28T03:08:46.413Z,78.30
2023-03-28T03:11:16.002Z,78.20
2023-03-28T03:13:44.476Z,76.50
2023-03-28T03:16:12.775Z,75.40
2023-03-28T03:18:41.071Z,76.00
2023-03-28T03:21:09.288Z,76.80
2023-03-28T03:23:37.623Z,76.60
2023-03-28T03:26:06.287Z,76.00
2023-03-28T03:28:35.890Z,76.70
2023-03-28T03:31:04.108Z,77.80
2023-03-28T03:33:32.620Z,78.20
2023-03-28T03:36:01.158Z,78.40
2023-03-28T03:38:29.526Z,79.10
2023-03-28T03:40:57.698Z,79.40
2023-03-28T03:43:27.863Z,79.30
2023-03-28T03:45:57.946Z,82.40
2023-03-28T03:48:26.496Z,90.10
2023-03-28T03:50:54.710Z,90.80
2023-03-28T03:53:22.903Z,91.40
2023-03-28T03:55:51.154Z,92.80
2023-03-28T03:58:20.470Z,93.80
2023-03-28T04:00:49.264Z,94.50
2023-03-28T04:03:24.143Z,94.90
2023-03-28T04:05:55.155Z,95.30
2023-03-28T04:08:23.349Z,95.70
2023-03-28T04:10:51.527Z,96.20
2023-03-28T04:13:19.763Z,96.50
2023-03-28T04:15:48.617Z,96.70
2023-03-28T04:18:20.611Z,97.00
2023-03-28T04:20:53.864Z,97.60
2023-03-28T04:23:25.793Z,98.00
2023-03-28T04:25:55.931Z,98.10
2023-03-28T04:28:27.809Z,98.60
2023-03-28T04:30:58.312Z,98.80
2023-03-28T04:33:28.849Z,99.10
2023-03-28T04:36:00.398Z,99.40
2023-03-28T04:38:29.631Z,99.40
2023-03-28T04:40:58.790Z,99.40
2023-03-28T04:43:27.722Z,99.50
2023-03-28T04:45:56.707Z,99.60
2023-03-28T04:48:25.813Z,99.70
2023-03-28T04:50:55.729Z,99.80
2023-03-28T04:53:23.963Z,99.80
2023-03-28T04:55:52.532Z,99.70
2023-03-28T04:58:22.017Z,99.70
2023-03-28T05:00:50.564Z,99.80
2023-03-28T05:03:21.811Z,99.70
2023-03-28T05:05:52.278Z,99.70
2023-03-28T05:08:23.699Z,99.60
2023-03-28T05:10:52.214Z,99.70
2023-03-28T05:13:23.145Z,99.80
2023-03-28T05:15:51.301Z,99.70
2023-03-28T05:18:19.476Z,99.60
2023-03-28T05:20:47.674Z,99.50
2023-03-28T05:23:15.976Z,99.60
2023-03-28T05:25:50.667Z,99.40
2023-03-28T05:28:18.948Z,98.80
2023-03-28T05:30:47.132Z,98.30
2023-03-28T05:33:15.509Z,97.70
2023-03-28T05:35:43.832Z,97.10
2023-03-28T05:38:12.410Z,96.70
2023-03-28T05:40:40.733Z,96.20
2023-03-28T05:43:11.638Z,95.50
2023-03-28T05:45:39.895Z,95.20
2023-03-28T05:48:08.126Z,94.70
2023-03-28T05:50:36.449Z,93.90
2023-03-28T05:53:04.772Z,93.70
2023-03-28T05:55:35.382Z,93.20
2023-03-28T05:58:04.609Z,92.60
2023-03-28T06:00:34.620Z,92.20
2023-03-28T06:03:03.101Z,91.60
2023-03-28T06:05:31.500Z,91.10
2023-03-28T06:07:59.758Z,90.10
2023-03-28T06:10:27.936Z,89.40
2023-03-28T06:12:56.235Z,88.90
2023-03-28T06:15:26.331Z,87.90
2023-03-28T06:17:56.235Z,86.40
2023-03-28T06:20:24.449Z,84.00
2023-03-28T06:22:52.917Z,82.80
2023-03-28T06:25:21.143Z,82.50
2023-03-28T06:27:49.294Z,81.00
2023-03-28T06:30:17.493Z,79.00
2023-03-28T06:32:45.780Z,78.00
2023-03-28T06:35:15.548Z,77.10
2023-03-28T06:37:43.744Z,75.20
2023-03-28T06:40:12.519Z,75.10
2023-03-28T06:42:40.784Z,74.10
2023-03-28T06:45:10.085Z,70.40
2023-03-28T06:47:38.308Z,72.20
2023-03-28T06:50:07.721Z,69.80
2023-03-28T06:52:37.333Z,66.70
2023-03-28T06:55:06.093Z,66.40
2023-03-28T06:57:34.314Z,68.80
2023-03-28T07:00:03.582Z,64.90
2023-03-28T07:02:31.896Z,67.30
2023-03-28T07:05:00.255Z,66.70
2023-03-28T07:07:28.586Z,63.80
2023-03-28T07:09:58.158Z,63.20
2023-03-28T07:12:26.336Z,64.80
2023-03-28T07:14:54.503Z,63.20
2023-03-28T07:17:22.747Z,61.50
2023-03-28T07:19:53.623Z,62.70
2023-03-28T07:22:21.874Z,60.00
2023-03-28T07:24:50.057Z,60.50
2023-03-28T07:27:19.704Z,57.00
2023-03-28T07:29:47.960Z,57.90
2023-03-28T07:32:16.842Z,57.70
2023-03-28T07:34:45.080Z,58.30
2023-03-28T07:37:13.252Z,57.30
2023-03-28T07:39:43.766Z,58.30
2023-03-28T07:42:12.823Z,57.40
2023-03-28T07:44:42.634Z,53.70
2023-03-28T07:47:11.208Z,52.60
2023-03-28T07:49:39.648Z,51.00
2023-03-28T07:52:07.997Z,51.30
2023-03-28T07:54:36.895Z,52.00
2023-03-28T07:57:05.394Z,51.60
2023-03-28T07:59:33.818Z,53.10
2023-03-28T08:02:03.431Z,50.40
2023-03-28T08:04:32.174Z,51.00
2023-03-28T08:07:00.451Z,50.50
2023-03-28T08:09:28.816Z,48.30
2023-03-28T08:11:57.029Z,48.60
2023-03-28T08:14:25.335Z,48.60
2023-03-28T08:16:53.748Z,48.50
2023-03-28T08:19:23.480Z,49.30
2023-03-28T08:21:51.663Z,48.90
2023-03-28T08:24:32.749Z,46.70
2023-03-28T08:27:03.972Z,47.70
2023-03-28T08:29:32.259Z,47.70
2023-03-28T08:32:00.431Z,46.90
2023-03-28T08:34:30.052Z,48.90
2023-03-28T08:36:59.197Z,47.70
2023-03-28T08:39:27.454Z,48.40
2023-03-28T08:42:09.893Z,49.50
2023-03-28T08:45:01.523Z,48.90
2023-03-28T08:47:31.997Z,47.00
2023-03-28T08:50:03.096Z,47.20
2023-03-28T08:52:31.759Z,46.20
2023-03-28T08:55:02.510Z,45.60
2023-03-28T08:57:33.017Z,45.40
2023-03-28T09:00:09.191Z,46.30
2023-03-28T09:02:37.606Z,43.80
2023-03-28T09:05:22.550Z,44.70
2023-03-28T09:07:56.213Z,43.40
2023-03-28T09:10:28.859Z,44.00
2023-03-28T09:13:05.010Z,44.60
2023-03-28T09:15:41.814Z,46.50
2023-03-28T09:18:23.894Z,45.30
2023-03-28T09:20:58.799Z,45.00
2023-03-28T09:23:45.025Z,43.90
2023-03-28T09:26:17.158Z,44.80
2023-03-28T09:28:50.233Z,44.80
2023-03-28T09:31:20.981Z,45.80
2023-03-28T09:33:50.775Z,44.20
2023-03-28T09:36:25.948Z,43.30
2023-03-28T09:38:59.390Z,44.30
2023-03-28T09:41:30.496Z,42.30
2023-03-28T09:44:00.707Z,42.00
2023-03-28T09:46:31.664Z,42.80
2023-03-28T09:49:00.119Z,43.50
2023-03-28T09:51:29.747Z,45.80
2023-03-28T09:53:57.958Z,43.40
2023-03-28T09:56:28.446Z,43.90
2023-03-28T09:58:58.699Z,43.80
2023-03-28T10:01:32.983Z,43.50
2023-03-28T10:04:02.113Z,44.10
2023-03-28T10:06:33.228Z,45.70
2023-03-28T10:09:18.243Z,45.10
2023-03-28T10:11:52.112Z,45.00
2023-03-28T10:14:31.281Z,44.40
2023-03-28T10:17:01.919Z,45.10
2023-03-28T10:19:33.504Z,45.90
2023-03-28T10:22:07.372Z,45.40
2023-03-28T10:24:36.099Z,44.70
2023-03-28T10:27:17.518Z,45.10
2023-03-28T10:29:47.476Z,44.10
2023-03-28T10:32:24.582Z,44.90
2023-03-28T10:35:01.551Z,45.70
2023-03-28T10:37:32.721Z,44.40
2023-03-28T10:40:05.372Z,45.40
2023-03-28T10:42:44.133Z,43.70
2023-03-28T10:45:21.494Z,43.60
2023-03-28T10:47:50.586Z,44.70
2023-03-28T10:50:28.159Z,44.50
2023-03-28T10:53:10.548Z,42.80
2023-03-28T10:55:40.731Z,42.50
2023-03-28T10:58:16.761Z,43.10
2023-03-28T11:00:52.105Z,43.40
2023-03-28T11:03:31.865Z,45.30
2023-03-28T11:06:09.533Z,45.30
2023-03-28T11:08:48.170Z,45.20
2023-03-28T11:11:31.595Z,44.30
2023-03-28T11:14:03.190Z,45.00
2023-03-28T11:16:40.152Z,45.60
2023-03-28T11:19:15.590Z,43.70
2023-03-28T11:21:49.247Z,43.50
2023-03-28T11:24:27.470Z,44.30
2023-03-28T11:27:14.990Z,43.20
2023-03-28T11:29:49.265Z,44.30
2023-03-28T11:32:20.802Z,42.60
2023-03-28T11:35:02.741Z,44.00
2023-03-28T11:37:34.215Z,43.50
2023-03-28T11:40:11.621Z,42.30
2023-03-28T11:42:42.656Z,42.90
2023-03-28T11:45:33.865Z,42.60
2023-03-28T11:48:13.818Z,43.00
2023-03-28T11:50:50.086Z,43.20
2023-03-28T11:53:23.852Z,40.40
2023-03-28T11:55:59.501Z,41.30
2023-03-28T11:58:29.636Z,42.60
2023-03-28T12:01:03.642Z,42.00
2023-03-28T12:03:36.761Z,43.40
2023-03-28T12:06:08.917Z,43.10
2023-03-28T12:08:43.042Z,43.20
2023-03-28T12:11:18.866Z,43.30
2023-03-28T12:13:55.415Z,44.30
2023-03-28T12:16:30.508Z,44.70
2023-03-28T12:19:01.460Z,39.50
2023-03-28T12:21:34.537Z,38.10
2023-03-28T12:24:08.615Z,41.80
2023-03-28T12:26:57.267Z,41.30
2023-03-28T12:29:29.312Z,40.70
2023-03-28T12:32:00.481Z,41.80
2023-03-28T12:34:35.347Z,38.80
2023-03-28T12:37:12.129Z,38.90
2023-03-28T12:39:42.357Z,39.70
2023-03-28T12:42:15.910Z,41.40
2023-03-28T12:44:46.356Z,42.50
2023-03-28T12:47:17.296Z,41.00
2023-03-28T12:49:49.215Z,39.80
2023-03-28T12:52:20.182Z,38.60
2023-03-28T12:55:00.916Z,38.80
2023-03-28T12:57:46.099Z,42.50
2023-03-28T13:00:36.163Z,42.30
2023-03-28T13:03:18.308Z,40.80
2023-03-28T13:05:50.743Z,38.20
2023-03-28T13:08:24.762Z,37.80
2023-03-28T13:11:06.553Z,37.90
2023-03-28T13:13:45.193Z,37.00
2023-03-28T13:16:30.165Z,37.60
2023-03-28T13:19:08.950Z,39.80
2023-03-28T13:21:47.757Z,40.70
2023-03-28T13:24:31.001Z,41.80
2023-03-28T13:27:00.729Z,41.90
2023-03-28T13:29:46.655Z,42.30
2023-03-28T13:32:16.568Z,42.10
2023-03-28T13:34:49.448Z,40.60
2023-03-28T13:37:23.360Z,41.00
2023-03-28T13:39:53.238Z,41.60
2023-03-28T13:42:29.368Z,42.20
2023-03-28T13:45:00.777Z,40.80
2023-03-28T13:47:33.623Z,41.70
2023-03-28T13:50:05.063Z,40.70
2023-03-28T13:52:33.604Z,41.30
2023-03-28T13:55:03.462Z,42.00
2023-03-28T13:57:31.740Z,43.60
2023-03-28T14:00:04.944Z,43.80
2023-03-28T14:02:38.152Z,43.60
2023-03-28T14:05:15.456Z,42.90
2023-03-28T14:07:43.791Z,43.90
2023-03-28T14:10:22.401Z,42.80
2023-03-28T14:12:53.081Z,43.50
2023-03-28T14:15:25.624Z,42.80
2023-03-28T14:17:55.840Z,42.60
2023-03-28T14:20:24.322Z,41.70
2023-03-28T14:23:00.458Z,42.50
2023-03-28T14:25:30.416Z,43.00
2023-03-28T14:28:06.731Z,43.20
2023-03-28T14:30:42.264Z,43.70
2023-03-28T14:33:20.494Z,43.40
2023-03-28T14:35:57.990Z,43.60
2023-03-28T14:38:31.082Z,43.40
2023-03-28T14:41:07.100Z,42.90
2023-03-28T14:43:35.715Z,42.40
2023-03-28T14:46:08.399Z,43.00
2023-03-28T14:48:38.255Z,43.20
2023-03-28T14:51:06.940Z,43.20
2023-03-28T14:53:38.398Z,43.30
2023-03-28T14:56:10.489Z,44.40
2023-03-28T14:58:39.811Z,45.10
2023-03-28T15:01:11.264Z,45.30
2023-03-28T15:03:42.272Z,45.50
2023-03-28T15:06:16.322Z,45.70
2023-03-28T15:08:45.980Z,44.70
2023-03-28T15:11:16.695Z,45.10
2023-03-28T15:13:46.454Z,46.10
2023-03-28T15:16:23.357Z,47.00
2023-03-28T15:18:57.508Z,46.50
2023-03-28T15:21:25.826Z,46.90
2023-03-28T15:23:57.424Z,48.20
2023-03-28T15:26:28.810Z,47.70
2023-03-28T15:28:58.163Z,48.30
2023-03-28T15:31:28.283Z,49.10
2023-03-28T15:33:56.753Z,50.50
2023-03-28T15:36:26.679Z,51.10
2023-03-28T15:39:01.052Z,52.10
2023-03-28T15:41:43.004Z,52.10
2023-03-28T15:44:22.874Z,53.20
2023-03-28T15:46:53.353Z,53.70
2023-03-28T15:49:21.743Z,54.80
2023-03-28T15:51:52.537Z,54.30
2023-03-28T15:54:30.851Z,54.40
2023-03-28T15:57:01.767Z,54.00
2023-03-28T15:59:33.960Z,54.80
2023-03-28T16:02:33.042Z,53.70
2023-03-28T16:05:02.883Z,54.00
2023-03-28T16:07:35.896Z,54.60
2023-03-28T16:10:05.146Z,54.40
2023-03-28T16:12:33.468Z,54.80
2023-03-28T16:15:03.080Z,54.60
2023-03-28T16:17:33.658Z,53.50
2023-03-28T16:20:02.173Z,55.20
2023-03-28T16:22:30.409Z,55.60
2023-03-28T16:24:58.595Z,54.50
2023-03-28T16:27:26.866Z,54.30
2023-03-28T16:29:55.083Z,54.80
2023-03-28T16:32:24.949Z,55.60
2023-03-28T16:34:54.706Z,56.80
2023-03-28T16:37:23.245Z,57.80
2023-03-28T16:39:51.515Z,58.30
2023-03-28T16:42:20.844Z,58.90
2023-03-28T16:44:49.190Z,61.10
2023-03-28T16:47:17.395Z,60.90
2023-03-28T16:49:45.634Z,61.70
2023-03-28T16:52:15.488Z,61.50
2023-03-28T16:54:44.254Z,60.30
2023-03-28T16:57:12.862Z,60.90
2023-03-28T16:59:41.138Z,61.40
2023-03-28T17:02:10.683Z,62.30
2023-03-28T17:04:38.906Z,61.80
2023-03-28T17:07:07.393Z,62.40
2023-03-28T17:09:37.537Z,63.30
2023-03-28T17:12:05.831Z,64.10
2023-03-28T17:14:34.165Z,63.80
2023-03-28T17:17:02.454Z,64.50
2023-03-28T17:19:30.939Z,64.80
2023-03-28T17:21:59.162Z,64.80
2023-03-28T17:24:28.080Z,65.10
2023-03-28T17:26:57.790Z,65.00
2023-03-28T17:29:26.037Z,65.50
2023-03-28T17:31:54.524Z,67.90
2023-03-28T17:34:23.031Z,65.50
2023-03-28T17:36:53.589Z,65.10
2023-03-28T17:39:23.101Z,65.50
2023-03-28T17:41:51.419Z,65.90
2023-03-28T17:44:21.228Z,66.30
2023-03-28T17:46:49.502Z,66.40
2023-03-28T17:49:18.310Z,67.40
2023-03-28T17:51:46.809Z,68.30
2023-03-28T17:54:15.125Z,67.70
2023-03-28T17:56:43.382Z,67.10
2023-03-28T17:59:11.700Z,66.60
2023-03-28T18:01:41.557Z,66.70
2023-03-28T18:04:09.856Z,67.20
2023-03-28T18:06:38.318Z,67.60
2023-03-28T18:09:06.522Z,68.20
2023-03-28T18:11:35.815Z,69.00
2023-03-28T18:14:04.298Z,69.70
2023-03-28T18:16:33.422Z,70.80
2023-03-28T18:19:03.422Z,72.30
2023-03-28T18:21:32.213Z,73.10
2023-03-28T18:24:00.596Z,73.20
2023-03-28T18:26:29.318Z,73.10
2023-03-28T18:28:57.786Z,72.50
2023-03-28T18:31:28.488Z,72.40
2023-03-28T18:33:57.809Z,73.20
2023-03-28T18:36:27.571Z,73.70
2023-03-28T18:38:56.575Z,75.60
2023-03-28T18:41:25.106Z,76.30
2023-03-28T18:43:53.391Z,78.10
2023-03-28T18:46:21.730Z,79.50
2023-03-28T18:48:50.562Z,81.00
2023-03-28T18:51:20.457Z,81.70
2023-03-28T18:53:50.112Z,82.40
2023-03-28T18:56:18.511Z,83.20
2023-03-28T18:58:49.053Z,83.20
2023-03-28T19:01:18.413Z,83.80
2023-03-28T19:03:47.215Z,84.70
2023-03-28T19:06:16.294Z,85.80
2023-03-28T19:08:45.081Z,86.30
2023-03-28T19:11:16.714Z,86.00
2023-03-28T19:13:45.069Z,84.70
2023-03-28T19:16:14.612Z,84.80
2023-03-28T19:18:44.521Z,85.00
2023-03-28T19:21:13.302Z,84.60
2023-03-28T19:23:41.874Z,84.50
2023-03-28T19:26:12.074Z,84.40
2023-03-28T19:28:42.067Z,85.40
2023-03-28T19:31:12.380Z,85.90
2023-03-28T19:33:41.841Z,86.80
2023-03-28T19:36:10.835Z,86.20
2023-03-28T19:38:39.922Z,85.80
2023-03-28T19:41:10.848Z,85.10
2023-03-28T19:43:41.796Z,84.80
2023-03-28T19:46:12.513Z,84.60
2023-03-28T19:48:41.081Z,84.40
2023-03-28T19:51:09.319Z,84.60
2023-03-28T19:53:37.500Z,85.20
2023-03-28T19:56:07.169Z,85.20
2023-03-28T19:58:36.108Z,84.70
2023-03-28T20:01:06.152Z,84.80
2023-03-28T20:03:34.455Z,85.70
2023-03-28T20:06:03.851Z,86.40
2023-03-28T20:08:32.669Z,86.70
2023-03-28T20:11:02.017Z,87.10
2023-03-28T20:13:30.541Z,88.00
2023-03-28T20:16:02.389Z,87.70
2023-03-28T20:18:32.682Z,88.00
2023-03-28T20:21:02.281Z,88.40
2023-03-28T20:23:32.723Z,87.90
2023-03-28T20:26:01.753Z,88.00
2023-03-28T20:28:32.101Z,87.90
2023-03-28T20:31:00.758Z,88.10
2023-03-28T20:33:29.350Z,88.60
2023-03-28T20:36:00.531Z,87.50
2023-03-28T20:38:30.080Z,87.60
2023-03-28T20:40:58.296Z,88.00
2023-03-28T20:43:29.471Z,88.50
2023-03-28T20:46:01.668Z,89.20
2023-03-28T20:48:36.658Z,90.10
2023-03-28T20:51:14.370Z,90.20
2023-03-28T20:53:43.647Z,90.60
2023-03-28T20:56:13.595Z,91.00
2023-03-28T20:58:42.888Z,91.30
2023-03-28T21:01:12.857Z,91.60
2023-03-28T21:03:48.294Z,91.80
2023-03-28T21:06:19.466Z,91.80
2023-03-28T21:08:48.863Z,91.90
2023-03-28T21:11:18.557Z,91.80
2023-03-28T21:13:46.884Z,91.70
2023-03-28T21:16:16.044Z,91.60
2023-03-28T21:18:44.951Z,91.70
2023-03-28T21:21:14.634Z,91.80
2023-03-28T21:23:44.811Z,91.70
2023-03-28T21:26:14.592Z,91.80
2023-03-28T21:28:42.902Z,91.80
2023-03-28T21:31:13.246Z,91.60
2023-03-28T21:33:42.689Z,91.60
2023-03-28T21:36:12.437Z,91.70
2023-03-28T21:38:41.290Z,91.70
2023-03-28T21:41:11.277Z,91.70
2023-03-28T21:43:40.075Z,91.70
2023-03-28T21:46:09.120Z,91.80
2023-03-28T21:48:37.627Z,91.70
2023-03-28T21:51:06.790Z,91.70
2023-03-28T21:53:36.485Z,91.80
2023-03-28T21:56:06.777Z,91.90
2023-03-28T21:58:36.415Z,92.00
2023-03-28T22:01:06.812Z,92.00
2023-03-28T22:03:37.244Z,91.80
2023-03-28T22:06:06.555Z,91.80
2023-03-28T22:08:34.734Z,91.70
2023-03-28T22:11:04.423Z,91.80
2023-03-28T22:13:32.875Z,91.70
2023-03-28T22:16:02.592Z,91.70
2023-03-28T22:18:31.295Z,91.60
2023-03-28T22:21:02.532Z,91.60
2023-03-28T22:23:31.087Z,91.70
2023-03-28T22:25:59.487Z,91.70
2023-03-28T22:28:27.727Z,91.80
2023-03-28T22:30:57.135Z,92.00
2023-03-28T22:33:26.869Z,92.10
2023-03-28T22:35:55.163Z,92.30
2023-03-28T22:38:23.390Z,92.40
2023-03-28T22:40:51.560Z,92.50
2023-03-28T22:43:19.842Z,92.80
2023-03-28T22:45:48.493Z,92.80
2023-03-28T22:48:17.147Z,92.90
2023-03-28T22:50:47.230Z,93.00
2023-03-28T22:53:16.234Z,93.10
2023-03-28T22:55:44.997Z,93.40
2023-03-28T22:58:13.530Z,93.60
2023-03-28T23:00:43.798Z,94.60
2023-03-28T23:03:12.284Z,94.00
2023-03-28T23:05:40.664Z,93.70
2023-03-28T23:08:11.824Z,93.80
2023-03-28T23:10:40.624Z,94.00
2023-03-28T23:13:09.237Z,94.30
2023-03-28T23:15:37.476Z,94.80
2023-03-28T23:18:06.157Z,94.70
2023-03-28T23:20:35.712Z,94.80
2023-03-28T23:23:04.143Z,94.60
2023-03-28T23:25:34.472Z,94.60
2023-03-28T23:28:02.846Z,94.90
2023-03-28T23:30:31.452Z,95.10
2023-03-28T23:32:59.680Z,95.20
2023-03-28T23:35:27.874Z,95.00
2023-03-28T23:37:56.090Z,95.10
2023-03-28T23:40:24.488Z,95.00
2023-03-28T23:42:54.059Z,95.00
2023-03-28T23:45:22.225Z,95.00
2023-03-28T23:47:50.747Z,95.00
2023-03-28T23:50:19.125Z,95.00
2023-03-28T23:52:47.374Z,95.00
2023-03-28T23:55:16.353Z,94.90
2023-03-28T23:57:44.548Z,94.90
